createdAt,value
2019-03-13T00:03:09.946Z,1013
2019-03-13T00:08:10.078Z,1013
2019-03-13T00:13:09.980Z,1013
2019-03-13T00:18:09.997Z,1012.9
2019-03-13T00:23:09.991Z,1013
2019-03-13T00:28:10.127Z,1012.9
2019-03-13T00:33:10.170Z,1012.9
2019-03-13T00:38:10.022Z,1012.9
2019-03-13T00:43:10.120Z,1013
2019-03-13T00:48:10.155Z,1013
2019-03-13T00:53:10.237Z,1013
2019-03-13T00:58:10.073Z,1012.8
2019-03-13T01:03:10.178Z,1012.7
2019-03-13T01:08:10.000Z,1012.3
2019-03-13T01:13:09.971Z,1012.1
2019-03-13T01:18:10.171Z,1011.9
2019-03-13T01:23:09.963Z,1011.7
2019-03-13T01:28:10.107Z,1011.7
2019-03-13T01:33:09.973Z,1011.6
2019-03-13T01:38:10.199Z,1011.5
2019-03-13T01:43:10.115Z,1011.4
2019-03-13T01:48:10.159Z,1011.3
2019-03-13T01:53:10.229Z,1011.2
2019-03-13T01:58:09.976Z,1011.2
2019-03-13T02:03:10.006Z,1011.2
2019-03-13T02:08:10.196Z,1011.2
2019-03-13T02:13:10.042Z,1011.3
2019-03-13T02:18:10.342Z,1011.2
2019-03-13T02:23:10.233Z,1011.2
2019-03-13T02:28:10.002Z,1011.2
2019-03-13T02:33:10.165Z,1011.1
2019-03-13T02:38:10.247Z,1011.1
2019-03-13T02:43:10.233Z,1010.8
2019-03-13T02:48:10.002Z,1010.6
2019-03-13T02:53:10.197Z,1010.5
2019-03-13T02:58:10.242Z,1010.5
2019-03-13T03:03:10.010Z,1010.5
2019-03-13T03:08:10.017Z,1010.5
2019-03-13T03:13:10.046Z,1011
2019-03-13T03:18:10.162Z,1011.3
2019-03-13T03:23:10.201Z,1011.6
2019-03-13T03:28:10.189Z,1011.7
2019-03-13T03:33:10.204Z,1012.6
2019-03-13T03:38:10.142Z,1012.5
2019-03-13T03:43:10.408Z,1012.5
2019-03-13T03:48:11.201Z,1013
2019-03-13T03:53:10.075Z,1013.4
2019-03-13T03:58:10.255Z,1013.4
2019-03-13T04:03:10.191Z,1013.4
2019-03-13T04:08:10.057Z,1013.1
2019-03-13T04:13:10.233Z,1013
2019-03-13T04:18:10.188Z,1013
2019-03-13T04:23:10.197Z,1013
2019-03-13T04:28:10.086Z,1013.1
2019-03-13T04:33:10.295Z,1013
2019-03-13T04:38:10.076Z,1013
2019-03-13T04:43:10.047Z,1013
2019-03-13T04:48:10.265Z,1013
2019-03-13T04:53:10.190Z,1013.1
2019-03-13T04:58:10.245Z,1013.1
2019-03-13T05:03:10.262Z,1013.2
2019-03-13T05:08:10.097Z,1013.5
2019-03-13T05:13:11.070Z,1013.5
2019-03-13T05:18:10.251Z,1013.5
2019-03-13T05:23:10.077Z,1013.6
2019-03-13T05:28:10.102Z,1013.8
2019-03-13T05:33:10.273Z,1014
2019-03-13T05:38:10.305Z,1014.2
2019-03-13T05:43:10.224Z,1014.2
2019-03-13T05:48:10.271Z,1014.2
2019-03-13T05:53:10.113Z,1014.1
2019-03-13T05:58:10.111Z,1014.1
2019-03-13T06:03:10.264Z,1014
2019-03-13T06:08:10.106Z,1013.8
2019-03-13T06:13:10.116Z,1014.1
2019-03-13T06:18:10.566Z,1014.3
2019-03-13T06:23:10.309Z,1014.5
2019-03-13T06:28:10.092Z,1014.7
2019-03-13T06:33:10.311Z,1014.8
2019-03-13T06:38:10.293Z,1014.9
2019-03-13T06:43:10.351Z,1014.9
2019-03-13T06:48:10.258Z,1015
2019-03-13T06:53:10.322Z,1015.1
2019-03-13T06:58:10.172Z,1015.2
2019-03-13T07:03:10.123Z,1015.1
2019-03-13T07:08:10.292Z,1015.2
2019-03-13T07:13:10.310Z,1015.3
2019-03-13T07:18:10.429Z,1015.3
2019-03-13T07:23:10.316Z,1015.4
2019-03-13T07:28:10.354Z,1015.6
2019-03-13T07:33:10.387Z,1015.5
2019-03-13T07:38:10.318Z,1015.6
2019-03-13T07:43:10.548Z,1015.6
2019-03-13T07:48:10.392Z,1015.7
2019-03-13T07:53:10.509Z,1015.8
2019-03-13T07:58:10.332Z,1015.8
2019-03-13T08:03:10.178Z,1015.8
2019-03-13T08:08:10.338Z,1015.9
2019-03-13T08:13:10.355Z,1016
2019-03-13T08:18:10.423Z,1016
2019-03-13T08:23:10.163Z,1016.1
2019-03-13T08:28:10.340Z,1016.1
2019-03-13T08:33:10.306Z,1016.1
2019-03-13T08:38:10.184Z,1016
2019-03-13T08:43:10.357Z,1016.1
2019-03-13T08:48:10.383Z,1016
2019-03-13T08:53:10.432Z,1016.1
2019-03-13T08:58:10.219Z,1016
2019-03-13T09:03:10.199Z,1016.1
2019-03-13T09:08:10.463Z,1016
2019-03-13T09:13:10.238Z,1016
2019-03-13T09:18:10.378Z,1016
2019-03-13T09:23:10.351Z,1015.9
2019-03-13T09:28:10.223Z,1015.9
2019-03-13T09:33:10.467Z,1015.8
2019-03-13T09:38:10.427Z,1015.8
2019-03-13T09:43:10.484Z,1015.6
2019-03-13T09:48:10.420Z,1015.6
2019-03-13T09:53:10.420Z,1015.7
2019-03-13T09:58:10.437Z,1015.7
2019-03-13T10:03:10.511Z,1015.7
2019-03-13T10:08:10.254Z,1015.7
2019-03-13T10:13:10.256Z,1015.8
2019-03-13T10:18:10.416Z,1015.7
2019-03-13T10:23:10.261Z,1015.7
2019-03-13T10:28:10.216Z,1015.6
2019-03-13T10:33:10.494Z,1015.6
2019-03-13T10:38:14.810Z,1015.6
2019-03-13T10:43:10.458Z,1015.5
2019-03-13T10:48:10.389Z,1015.4
2019-03-13T10:53:10.516Z,1015.3
2019-03-13T10:58:10.463Z,1015.3
2019-03-13T11:03:10.495Z,1015.1
2019-03-13T11:08:10.420Z,1015.1
2019-03-13T11:13:10.474Z,1014.9
2019-03-13T11:18:10.381Z,1015
2019-03-13T11:23:10.543Z,1014.8
2019-03-13T11:28:10.410Z,1014.8
2019-03-13T11:33:10.497Z,1014.8
2019-03-13T11:38:10.534Z,1014.7
2019-03-13T11:43:10.469Z,1014.5
2019-03-13T11:48:10.498Z,1014.4
2019-03-13T11:53:10.547Z,1014.2
2019-03-13T11:58:10.449Z,1014.2
2019-03-13T12:03:10.681Z,1014.2
2019-03-13T12:08:10.444Z,1014.1
2019-03-13T12:13:11.101Z,1014
2019-03-13T12:18:10.514Z,1014
2019-03-13T12:23:10.520Z,1014
2019-03-13T12:28:10.449Z,1013.9
2019-03-13T12:33:10.487Z,1013.9
2019-03-13T12:38:10.472Z,1013.6
2019-03-13T12:43:10.454Z,1013.5
2019-03-13T12:48:17.419Z,1013.6
2019-03-13T12:53:10.336Z,1013.5
2019-03-13T12:58:10.324Z,1013.5
2019-03-13T13:03:10.553Z,1013.4
2019-03-13T13:08:10.532Z,1013.3
2019-03-13T13:13:10.312Z,1013.1
2019-03-13T13:18:10.499Z,1013.1
2019-03-13T13:23:10.521Z,1013
2019-03-13T13:28:10.572Z,1012.8
2019-03-13T13:33:10.494Z,1012.7
2019-03-13T13:38:10.846Z,1012.7
2019-03-13T13:43:10.571Z,1012.6
2019-03-13T13:48:10.475Z,1012.7
2019-03-13T13:53:10.514Z,1012.6
2019-03-13T13:58:10.562Z,1012.5
2019-03-13T14:03:10.355Z,1012.4
2019-03-13T14:08:10.373Z,1012.4
2019-03-13T14:13:10.360Z,1012.4
2019-03-13T14:18:10.341Z,1012.4
2019-03-13T14:23:10.526Z,1012.5
2019-03-13T14:28:10.653Z,1012.6
2019-03-13T14:33:10.580Z,1012.7
2019-03-13T14:38:10.538Z,1012.8
2019-03-13T14:43:10.351Z,1013
2019-03-13T14:48:10.362Z,1013.1
2019-03-13T14:53:10.562Z,1013.1
2019-03-13T14:58:10.573Z,1013.1
2019-03-13T15:03:10.426Z,1013.1
2019-03-13T15:08:11.574Z,1013
2019-03-13T15:13:10.602Z,1012.8
2019-03-13T15:18:10.620Z,1013.1
2019-03-13T15:23:10.392Z,1013.1
2019-03-13T15:28:10.562Z,1013
2019-03-13T15:33:10.535Z,1012.9
2019-03-13T15:38:10.538Z,1012.8
2019-03-13T15:43:10.661Z,1012.9
2019-03-13T15:48:10.617Z,1012.9
2019-03-13T15:53:10.638Z,1012.8
2019-03-13T15:58:10.568Z,1012.9
2019-03-13T16:03:10.555Z,1012.9
2019-03-13T16:08:10.651Z,1012.8
2019-03-13T16:13:10.420Z,1012.9
2019-03-13T16:18:10.607Z,1012.9
2019-03-13T16:23:10.641Z,1013
2019-03-13T16:28:10.880Z,1012.8
2019-03-13T16:33:10.636Z,1012.9
2019-03-13T16:38:10.674Z,1013
2019-03-13T16:43:10.694Z,1013.1
2019-03-13T16:48:10.643Z,1013.1
2019-03-13T16:53:10.467Z,1013.1
2019-03-13T16:58:10.483Z,1013.2
2019-03-13T17:03:10.703Z,1013.4
2019-03-13T17:08:10.539Z,1013.6
2019-03-13T17:13:10.465Z,1013.7
2019-03-13T17:18:10.830Z,1013.8
2019-03-13T17:23:10.492Z,1013.9
2019-03-13T17:28:10.480Z,1014
2019-03-13T17:33:11.568Z,1014
2019-03-13T17:38:10.723Z,1014.2
2019-03-13T17:43:10.501Z,1014.1
2019-03-13T17:48:11.421Z,1014
2019-03-13T17:53:10.495Z,1014
2019-03-13T17:58:10.513Z,1014.1
2019-03-13T18:03:10.518Z,1014.1
2019-03-13T18:08:10.561Z,1014.2
2019-03-13T18:13:10.544Z,1014.1
2019-03-13T18:18:10.509Z,1014.2
2019-03-13T18:23:10.501Z,1014.2
2019-03-13T18:28:10.568Z,1014.1
2019-03-13T18:33:10.588Z,1014.2
2019-03-13T18:38:10.789Z,1014.3
2019-03-13T18:43:10.499Z,1014.3
2019-03-13T18:48:13.429Z,1014.3
2019-03-13T18:53:11.088Z,1014.4
2019-03-13T18:58:10.585Z,1014.6
2019-03-13T19:03:10.826Z,1014.6
2019-03-13T19:08:10.569Z,1014.8
2019-03-13T19:13:10.556Z,1014.8
2019-03-13T19:18:10.542Z,1014.8
2019-03-13T19:23:14.327Z,1014.7
2019-03-13T19:28:13.304Z,1014.6
2019-03-13T19:33:11.728Z,1014.5
2019-03-13T19:38:10.882Z,1014.6
2019-03-13T19:43:11.122Z,1014.5
2019-03-13T19:48:11.062Z,1014.4
2019-03-13T19:53:10.887Z,1014.3
2019-03-13T19:58:12.105Z,1014.2
2019-03-13T20:03:11.661Z,1014.3
2019-03-13T20:08:14.578Z,1014.3
2019-03-13T20:13:15.103Z,1014.2
2019-03-13T20:18:21.889Z,1014.1
2019-03-13T20:23:13.899Z,1014.2
2019-03-13T20:28:11.127Z,1014.2
2019-03-13T20:33:15.509Z,1014.1
2019-03-13T20:38:13.372Z,1014
2019-03-13T20:43:13.676Z,1014.1
2019-03-13T20:48:13.650Z,1014.1
2019-03-13T20:53:13.610Z,1014.1
2019-03-13T20:58:11.764Z,1014.1
2019-03-13T21:03:17.745Z,1014.2
2019-03-13T21:08:10.753Z,1014
2019-03-13T21:13:13.888Z,1014
2019-03-13T21:18:10.836Z,1014
2019-03-13T21:23:11.248Z,1014.1
2019-03-13T21:28:10.925Z,1014.1
2019-03-13T21:33:10.871Z,1014.1
2019-03-13T21:38:14.929Z,1014
2019-03-13T21:43:11.657Z,1014
2019-03-13T21:48:11.871Z,1014
2019-03-13T21:53:12.382Z,1014
2019-03-13T21:58:10.679Z,1014
2019-03-13T22:03:10.656Z,1013.7
2019-03-13T22:08:10.708Z,1013.7
2019-03-13T22:13:10.654Z,1013.6
2019-03-13T22:18:10.690Z,1013.7
2019-03-13T22:23:10.647Z,1013.7
2019-03-13T22:28:10.611Z,1013.6
2019-03-13T22:33:10.619Z,1013.7
2019-03-13T22:38:10.616Z,1013.8
2019-03-13T22:43:10.658Z,1013.9
2019-03-13T22:48:10.854Z,1013.9
2019-03-13T22:53:10.638Z,1013.7
2019-03-13T22:58:10.806Z,1014.4
2019-03-13T23:03:10.861Z,1014.3
2019-03-13T23:08:10.766Z,1014.1
2019-03-13T23:13:10.820Z,1014
2019-03-13T23:18:10.859Z,1013.7
2019-03-13T23:23:10.772Z,1013.7
2019-03-13T23:28:10.837Z,1013.7
2019-03-13T23:33:10.847Z,1013.6
2019-03-13T23:38:10.769Z,1013.6
2019-03-13T23:43:10.689Z,1013.5
2019-03-13T23:48:10.758Z,1013.5
2019-03-13T23:53:10.779Z,1013.5
2019-03-13T23:58:11.936Z,1013.6
